LFKF/FSC METAR and TAF weather

Enter ICAO airport designator
Station Type Date Time Source
LFKF METAR 2022/06/27 18:30 UTC NOAA

LFKF 271830Z AUTO VRB03KT CAVOK 28/22 Q1012 NOSIG


Station Type Date Time Source
LFKF Decoded METAR 2022/06/27 18:30 UTC NOAA

Figari, France (LFKF) 41-30N 009-06E 23M
Jun 27, 2022 - 02:30 PM EDT / 2022.06.27 1830 UTC
Wind: Variable at 3 MPH (3 KT):0
Visibility: greater than 7 mile(s):0
Temperature: 82 F (28 C)
Dew Point: 71 F (22 C)
Relative Humidity: 69%
Pressure (altimeter): 29.88 in. Hg (1012 hPa)
ob: LFKF 271830Z AUTO VRB03KT CAVOK 28/22 Q1012 NOSIG
cycle: 18

Station Type Date Time Source
LFKF TAF 2022/06/27 15:42 UTC NOAA

TAF TAF LFKF 271400Z 2715/2815 VRB05KT CAVOK PROB40
TEMPO 2802/2808 VRB15G30KT SHRA SCT050CB
BECMG 2810/2812 24015G25KT

Example: see airport list